Time;durP1;ratioP1;P1;durP2;ratioP2;P2;SDS_P1;SDS_P2;PMS_P1;PMS_P2;Temp;Humidity;BMP_temperature;BMP_pressure;BME280_temperature;BME280_humidity;BME280_pressure;Samples;Min_cycle;Max_cycle;Signal;HPM_P1;HPM_P2
2023/06/07 00:00:18;;;;;;;23.73;10.48;;;;;;;-146.25;100.00;52175.56;2079938;28;20887;-71
2023/06/07 00:01:20;;;;;;;25.77;10.77;;;;;;;-146.25;100.00;52171.53;2079781;28;32876;-71
2023/06/07 00:02:21;;;;;;;22.08;9.70;;;;;;;-146.25;100.00;52169.50;2079670;28;30833;-70
2023/06/07 00:03:38;;;;;;;20.27;9.57;;;;;;;-146.25;100.00;52173.56;2088117;28;20692;-71
2023/06/07 00:04:42;;;;;;;20.10;10.05;;;;;;;-146.25;100.00;52157.34;2085515;28;20163;-72
2023/06/07 00:05:44;;;;;;;21.38;9.10;;;;;;;-146.25;100.00;52153.28;2079722;28;36178;-71
2023/06/07 00:06:47;;;;;;;19.10;8.75;;;;;;;-146.25;100.00;52179.63;2079725;28;34786;-71
2023/06/07 00:07:49;;;;;;;19.52;9.05;;;;;;;-146.25;100.00;52206.00;2086672;28;40516;-73
2023/06/07 00:08:50;;;;;;;14.82;9.10;;;;;;;-146.25;100.00;52191.81;2087514;28;20180;-72
2023/06/07 00:09:52;;;;;;;18.25;9.40;;;;;;;-146.25;100.00;52197.88;2080188;28;38342;-72
2023/06/07 00:10:54;;;;;;;19.20;9.35;;;;;;;-146.25;100.00;52197.88;2078892;28;36243;-72
2023/06/07 00:11:56;;;;;;;27.48;10.93;;;;;;;-146.25;100.00;52203.97;2079968;28;20084;-71
2023/06/07 00:13:00;;;;;;;24.95;11.13;;;;;;;-146.25;100.00;52179.63;2079328;28;36884;-72
2023/06/07 00:14:03;;;;;;;22.40;10.27;;;;;;;-146.25;100.00;52214.09;2079783;28;33772;-70
2023/06/07 00:15:07;;;;;;;25.23;10.35;;;;;;;-146.25;100.00;52228.28;2079382;28;34548;-71
2023/06/07 00:16:10;;;;;;;21.98;10.10;;;;;;;-146.25;100.00;52187.75;2079345;28;38857;-73
2023/06/07 00:17:12;;;;;;;20.65;9.75;;;;;;;-146.25;100.00;52195.84;2079999;28;20168;-72
2023/06/07 00:18:15;;;;;;;17.52;9.40;;;;;;;-146.25;100.00;52201.94;2079273;28;35426;-71
2023/06/07 00:19:21;;;;;;;25.77;9.95;;;;;;;-146.25;100.00;52197.88;2078947;28;35297;-72
2023/06/07 00:20:23;;;;;;;21.17;9.27;;;;;;;-146.25;100.00;52169.50;2079721;28;36113;-71
2023/06/07 00:21:26;;;;;;;24.90;10.05;;;;;;;-146.25;100.00;52195.84;2079154;28;39203;-71
2023/06/07 00:22:29;;;;;;;22.42;9.63;;;;;;;-146.25;100.00;52173.56;2079393;28;30376;-71
2023/06/07 00:23:30;;;;;;;22.38;9.73;;;;;;;-146.25;100.00;52208.03;2078927;28;37004;-73
2023/06/07 00:24:32;;;;;;;15.40;9.35;;;;;;;-146.25;100.00;52210.03;2079673;28;33796;-71
2023/06/07 00:25:34;;;;;;;21.25;9.57;;;;;;;-146.25;100.00;52193.81;2079814;28;20563;-71
2023/06/07 00:26:36;;;;;;;20.90;9.18;;;;;;;-146.25;100.00;52165.44;2079855;28;38725;-72
2023/06/07 00:27:40;;;;;;;18.38;9.90;;;;;;;-146.25;100.00;52187.75;2079237;28;20042;-71
2023/06/07 00:28:41;;;;;;;20.30;10.07;;;;;;;-146.25;100.00;52201.94;2079155;28;31188;-72
2023/06/07 00:29:43;;;;;;;22.83;10.85;;;;;;;-146.25;100.00;52177.59;2079644;28;20093;-71
2023/06/07 00:30:45;;;;;;;16.00;9.70;;;;;;;-146.25;100.00;52214.09;2080334;28;20152;-71
2023/06/07 00:31:50;;;;;;;24.42;10.73;;;;;;;-146.25;100.00;52195.84;2080282;28;20890;-71
2023/06/07 00:32:54;;;;;;;21.42;10.00;;;;;;;-146.25;100.00;52181.66;2080494;28;25304;-71
2023/06/07 00:33:56;;;;;;;21.05;9.65;;;;;;;-146.25;100.00;52234.38;2079606;28;25999;-72
2023/06/07 00:35:01;;;;;;;24.55;10.00;;;;;;;-146.25;100.00;52167.47;2079851;28;26275;-71
2023/06/07 00:36:03;;;;;;;16.38;9.15;;;;;;;-146.25;100.00;52206.00;2080003;28;20074;-73
2023/06/07 00:37:05;;;;;;;18.55;9.23;;;;;;;-146.25;100.00;52195.84;2079921;28;30780;-72
2023/06/07 00:38:09;;;;;;;18.27;8.70;;;;;;;-146.25;100.00;52210.03;2079625;28;29409;-72
2023/06/07 00:39:11;;;;;;;15.00;8.93;;;;;;;-146.25;100.00;52228.28;2080348;28;20050;-71
2023/06/07 00:40:12;;;;;;;23.88;10.68;;;;;;;-146.25;100.00;52181.66;2079226;28;36129;-71
2023/06/07 00:41:17;;;;;;;19.23;10.82;;;;;;;-146.25;100.00;52199.91;2079943;28;25010;-71
2023/06/07 00:42:19;;;;;;;25.38;11.82;;;;;;;-146.25;100.00;52206.00;2079807;28;27057;-71
2023/06/07 00:43:21;;;;;;;23.60;10.55;;;;;;;-146.25;100.00;52206.00;2078880;28;33378;-71
2023/06/07 00:44:23;;;;;;;21.23;10.23;;;;;;;-146.25;100.00;52157.34;2078968;28;20062;-73
2023/06/07 00:45:28;;;;;;;19.42;9.90;;;;;;;-146.25;100.00;52203.97;2087418;28;20069;-72
2023/06/07 00:46:31;;;;;;;18.38;10.35;;;;;;;-146.25;100.00;52197.88;2079826;28;26122;-72
2023/06/07 00:47:38;;;;;;;19.77;9.82;;;;;;;-146.25;100.00;52189.78;2079790;28;20042;-73
2023/06/07 00:48:40;;;;;;;27.98;10.68;;;;;;;-146.25;100.00;52203.97;2063383;28;32864;-70
2023/06/07 00:49:44;;;;;;;21.92;10.75;;;;;;;-146.25;100.00;52169.50;2071920;28;32802;-70
2023/06/07 00:50:46;;;;;;;17.65;9.82;;;;;;;-146.25;100.00;52195.84;2078873;28;27622;-70
2023/06/07 00:51:48;;;;;;;23.05;11.43;;;;;;;-146.25;100.00;52210.03;2079260;28;27289;-70
2023/06/07 00:52:51;;;;;;;25.17;9.77;;;;;;;-146.25;100.00;52179.63;2080142;28;20155;-72
2023/06/07 00:53:55;;;;;;;20.08;10.60;;;;;;;-146.25;100.00;52214.09;2079672;28;29120;-70
2023/06/07 00:54:58;;;;;;;21.92;10.75;;;;;;;-146.25;100.00;52218.16;2079667;28;20854;-70
2023/06/07 00:56:03;;;;;;;19.60;9.25;;;;;;;-146.25;100.00;52201.94;2072256;28;20120;-71
2023/06/07 00:57:07;;;;;;;19.85;9.38;;;;;;;-146.25;100.00;52161.38;2071403;28;25486;-70
2023/06/07 00:58:10;;;;;;;23.27;11.35;;;;;;;-146.25;100.00;52210.03;2079591;28;20143;-70
2023/06/07 00:59:12;;;;;;;22.50;9.45;;;;;;;-146.25;100.00;52177.59;2071289;28;29533;-72
2023/06/07 01:00:15;;;;;;;22.13;10.50;;;;;;;-146.25;100.00;52218.16;2078958;28;30847;-70
2023/06/07 01:01:19;;;;;;;21.58;10.77;;;;;;;-146.25;100.00;52193.81;2079276;28;20063;-72
2023/06/07 01:02:20;;;;;;;26.73;10.73;;;;;;;-146.25;100.00;52197.88;2078746;28;37736;-71
2023/06/07 01:03:23;;;;;;;23.02;11.15;;;;;;;-146.25;100.00;52220.19;2078707;28;26598;-72
2023/06/07 01:04:25;;;;;;;20.55;11.00;;;;;;;-146.25;100.00;52224.25;2062723;28;33507;-71
2023/06/07 01:05:27;;;;;;;25.92;11.20;;;;;;;-146.25;100.00;52173.56;2071000;28;23977;-71
2023/06/07 01:06:29;;;;;;;21.77;10.73;;;;;;;-146.25;100.00;52222.22;2078559;28;37468;-71
2023/06/07 01:07:32;;;;;;;24.92;10.55;;;;;;;-146.25;100.00;52171.53;2079951;28;20038;-72
2023/06/07 01:08:35;;;;;;;28.08;12.15;;;;;;;-146.25;100.00;52206.00;2079520;28;20049;-72
2023/06/07 01:09:40;;;;;;;23.35;10.70;;;;;;;-146.25;100.00;52161.38;2079260;28;20160;-72
2023/06/07 01:10:42;;;;;;;23.38;11.35;;;;;;;-146.25;100.00;52201.94;2079930;28;28913;-71
2023/06/07 01:11:49;;;;;;;23.23;11.48;;;;;;;-146.25;100.00;52173.56;2078496;28;32793;-70
2023/06/07 01:12:54;;;;;;;25.15;11.32;;;;;;;-146.25;100.00;52210.03;2063291;28;23593;-70
2023/06/07 01:13:57;;;;;;;20.30;10.40;;;;;;;-146.25;100.00;52161.38;2070512;28;28511;-70
2023/06/07 01:14:59;;;;;;;23.77;11.20;;;;;;;-146.25;100.00;52216.13;2070523;28;25245;-72
2023/06/07 01:16:01;;;;;;;19.48;11.40;;;;;;;-146.25;100.00;52193.81;2071001;28;26242;-69
2023/06/07 01:17:04;;;;;;;24.33;10.90;;;;;;;-146.25;100.00;52177.59;2071353;28;20084;-71
2023/06/07 01:18:09;;;;;;;21.70;11.55;;;;;;;-146.25;100.00;52208.03;2071123;28;20100;-70
2023/06/07 01:19:23;;;;;;;23.45;11.60;;;;;;;-146.25;100.00;52161.38;2071407;28;28605;-70
2023/06/07 01:20:26;;;;;;;22.45;11.05;;;;;;;-146.25;100.00;52181.66;2062611;28;26153;-71
2023/06/07 01:21:29;;;;;;;23.33;11.07;;;;;;;-146.25;100.00;52199.91;2063738;28;30426;-70
2023/06/07 01:22:33;;;;;;;26.05;11.65;;;;;;;-146.25;100.00;52187.75;2070828;28;28949;-71
2023/06/07 01:23:36;;;;;;;20.65;10.43;;;;;;;-146.25;100.00;52206.00;2062624;28;26605;-70
2023/06/07 01:24:42;;;;;;;25.20;11.45;;;;;;;-146.25;100.00;52173.56;2064237;28;30668;-70
2023/06/07 01:25:44;;;;;;;20.55;10.63;;;;;;;-146.25;100.00;52169.50;2065068;28;20042;-71
2023/06/07 01:26:52;;;;;;;27.80;11.63;;;;;;;-146.25;100.00;52240.47;2065241;28;20915;-70
2023/06/07 01:27:56;;;;;;;22.75;11.00;;;;;;;-146.25;100.00;52210.03;2072003;28;32270;-71
2023/06/07 01:29:06;;;;;;;24.98;11.68;;;;;;;-146.25;100.00;52177.59;2072907;28;20788;-71
2023/06/07 01:30:10;;;;;;;19.45;10.65;;;;;;;-146.25;100.00;52216.13;2063622;28;20890;-70
2023/06/07 01:31:13;;;;;;;24.05;11.90;;;;;;;-146.25;100.00;52218.16;2057524;28;25033;-70
2023/06/07 01:32:17;;;;;;;21.83;11.02;;;;;;;-146.25;100.00;52187.75;2065000;28;20065;-69
2023/06/07 01:33:20;;;;;;;32.40;12.43;;;;;;;-146.25;100.00;52169.50;2064012;28;33328;-70
2023/06/07 01:34:23;;;;;;;29.17;11.90;;;;;;;-146.25;100.00;52173.56;2064665;28;20047;-70
2023/06/07 01:35:27;;;;;;;31.38;13.88;;;;;;;-146.25;100.00;52214.09;2064858;28;20162;-71
2023/06/07 01:36:31;;;;;;;22.27;11.80;;;;;;;-146.25;100.00;52185.72;2064249;28;20161;-70
2023/06/07 01:37:35;;;;;;;24.98;12.18;;;;;;;-146.25;100.00;52183.69;2071953;28;27452;-71
2023/06/07 01:38:39;;;;;;;25.08;11.40;;;;;;;-146.25;100.00;52165.44;2072329;28;20133;-71
2023/06/07 01:39:42;;;;;;;23.50;11.25;;;;;;;-146.25;100.00;52181.66;2065361;28;20157;-70
2023/06/07 01:40:45;;;;;;;21.70;10.43;;;;;;;-146.25;100.00;52181.66;2072054;28;29792;-71
2023/06/07 01:41:50;;;;;;;25.08;10.68;;;;;;;-146.25;100.00;52185.72;2056312;28;20896;-71
2023/06/07 01:42:54;;;;;;;29.95;12.40;;;;;;;-146.25;100.00;52155.31;2065011;28;20161;-70
2023/06/07 01:43:59;;;;;;;22.63;11.02;;;;;;;-146.25;100.00;52193.81;2078441;28;31724;-71
2023/06/07 01:45:06;;;;;;;21.58;11.10;;;;;;;-146.25;100.00;52183.69;2080011;28;21227;-71
2023/06/07 01:46:09;;;;;;;23.38;11.05;;;;;;;-146.25;100.00;52161.38;2080763;28;20057;-72
2023/06/07 01:47:12;;;;;;;27.98;12.15;;;;;;;-146.25;100.00;52183.69;2079941;28;30866;-71
2023/06/07 01:48:18;;;;;;;30.48;12.07;;;;;;;-146.25;100.00;52183.69;2072458;28;20153;-70
2023/06/07 01:49:20;;;;;;;25.80;12.80;;;;;;;-146.25;100.00;52214.09;2081313;28;20152;-70
2023/06/07 01:50:22;;;;;;;24.92;11.63;;;;;;;-146.25;100.00;52179.63;2080123;28;28626;-71
2023/06/07 01:51:26;;;;;;;24.30;11.23;;;;;;;-146.25;100.00;52143.13;2080541;28;20049;-70
2023/06/07 01:52:28;;;;;;;22.25;10.88;;;;;;;-146.25;100.00;52199.91;2079842;28;27242;-71
2023/06/07 01:53:30;;;;;;;26.75;12.18;;;;;;;-146.25;100.00;52187.75;2079674;28;31676;-72
2023/06/07 01:54:32;;;;;;;25.75;11.57;;;;;;;-146.25;100.00;52222.22;2072287;28;20054;-71
2023/06/07 01:55:34;;;;;;;24.77;11.38;;;;;;;-146.25;100.00;52187.75;2072781;28;20108;-71
2023/06/07 01:57:04;;;;;;;17.00;10.13;;;;;;;-146.25;100.00;52228.28;2080412;28;24461;-72
2023/06/07 01:58:23;;;;;;;20.65;10.68;;;;;;;-146.25;100.00;52177.59;2068512;28;20094;-72
2023/06/07 02:00:07;;;;;;;21.92;10.38;;;;;;;-146.25;100.00;52157.34;2074519;28;20552;-71
2023/06/07 02:01:49;;;;;;;23.85;10.40;;;;;;;-146.25;100.00;52234.38;2078198;28;20187;-72
2023/06/07 02:03:12;;;;;;;22.67;10.65;;;;;;;-146.25;100.00;52181.66;2060848;28;27114;-70
2023/06/07 02:04:20;;;;;;;27.92;11.18;;;;;;;-146.25;100.00;52179.63;2080636;28;30407;-72
2023/06/07 02:05:47;;;;;;;24.13;11.88;;;;;;;-146.25;100.00;52214.09;2072365;28;20054;-70
2023/06/07 02:06:52;;;;;;;23.92;12.15;;;;;;;-146.25;100.00;52187.75;2071121;28;31765;-70
2023/06/07 02:07:54;;;;;;;20.40;10.68;;;;;;;-146.25;100.00;52183.69;2075534;28;28846;-70
2023/06/07 02:09:03;;;;;;;29.38;13.05;;;;;;;-146.25;100.00;52195.84;2080682;28;20030;-72
2023/06/07 02:10:06;;;;;;;31.00;12.27;;;;;;;-146.25;100.00;52177.59;2079704;28;32292;-71
2023/06/07 02:11:12;;;;;;;37.60;13.65;;;;;;;-146.25;100.00;52197.88;2080522;28;20515;-70
2023/06/07 02:12:16;;;;;;;28.25;12.95;;;;;;;-146.25;100.00;52187.75;2080243;28;20074;-72
2023/06/07 02:13:22;;;;;;;29.85;12.18;;;;;;;-146.25;100.00;52163.41;2072115;28;33608;-72
2023/06/07 02:14:26;;;;;;;28.95;11.13;;;;;;;-146.25;100.00;52163.41;2064139;28;20062;-72
2023/06/07 02:15:27;;;;;;;22.67;10.88;;;;;;;-146.25;100.00;52201.94;2072111;28;30796;-71
2023/06/07 02:16:36;;;;;;;27.35;12.45;;;;;;;-146.25;100.00;52175.56;2079911;28;33422;-71
2023/06/07 02:18:01;;;;;;;24.25;11.82;;;;;;;-146.25;100.00;52165.44;2080561;28;20022;-71
2023/06/07 02:19:06;;;;;;;20.92;11.10;;;;;;;-146.25;100.00;52165.44;2072488;28;20156;-71
2023/06/07 02:20:28;;;;;;;29.50;12.60;;;;;;;-146.25;100.00;52173.56;2076466;28;20840;-71
2023/06/07 02:21:32;;;;;;;28.98;11.43;;;;;;;-146.25;100.00;52199.91;2079823;28;30244;-71
2023/06/07 02:22:33;;;;;;;31.00;13.80;;;;;;;-146.25;100.00;52199.91;2080171;28;20034;-71
2023/06/07 02:23:36;;;;;;;25.05;10.77;;;;;;;-146.25;100.00;52218.16;2079938;28;29048;-71
2023/06/07 02:24:38;;;;;;;29.98;12.27;;;;;;;-146.25;100.00;52189.78;2079946;28;31726;-71
2023/06/07 02:25:40;;;;;;;29.35;11.88;;;;;;;-146.25;100.00;52185.72;2088091;28;30729;-71
2023/06/07 02:26:42;;;;;;;24.83;12.13;;;;;;;-146.25;100.00;52183.69;2079443;28;35846;-71
2023/06/07 02:27:43;;;;;;;27.88;12.20;;;;;;;-146.25;100.00;52167.47;2080550;28;20862;-72
2023/06/07 02:28:45;;;;;;;31.23;11.43;;;;;;;-146.25;100.00;52165.44;2080992;28;23369;-71
2023/06/07 02:29:49;;;;;;;26.17;11.27;;;;;;;-146.25;100.00;52201.94;2079186;28;35079;-72
2023/06/07 02:30:51;;;;;;;23.95;11.10;;;;;;;-146.25;100.00;52212.06;2080392;28;20205;-72
2023/06/07 02:32:00;;;;;;;20.20;10.73;;;;;;;-146.25;100.00;52175.56;2080299;28;30812;-72
2023/06/07 02:33:06;;;;;;;20.00;10.50;;;;;;;-146.25;100.00;52171.53;2080261;28;20123;-72
2023/06/07 02:34:09;;;;;;;30.10;10.73;;;;;;;-146.25;100.00;52181.66;2063869;28;25036;-72
2023/06/07 02:35:12;;;;;;;25.63;11.10;;;;;;;-146.25;100.00;52191.81;2072305;28;25586;-72
2023/06/07 02:36:17;;;;;;;26.50;11.75;;;;;;;-146.25;100.00;52222.22;2071492;28;20958;-72
2023/06/07 02:37:19;;;;;;;32.05;12.13;;;;;;;-146.25;100.00;52187.75;2071987;28;32724;-72
2023/06/07 02:38:21;;;;;;;31.17;12.55;;;;;;;-146.25;100.00;52197.88;2088130;28;26231;-72
2023/06/07 02:39:23;;;;;;;32.50;11.73;;;;;;;-146.25;100.00;52224.25;2088344;28;26839;-72
2023/06/07 02:40:25;;;;;;;22.67;11.13;;;;;;;-146.25;100.00;52191.81;2080465;28;34966;-72
2023/06/07 02:41:26;;;;;;;28.45;11.48;;;;;;;-146.25;100.00;52181.66;2080247;28;23487;-72
2023/06/07 02:42:30;;;;;;;24.35;11.07;;;;;;;-146.25;100.00;52208.03;2088196;28;20041;-72
2023/06/07 02:43:34;;;;;;;21.08;11.15;;;;;;;-146.25;100.00;52173.56;2087795;28;32936;-72
2023/06/07 02:44:36;;;;;;;23.80;11.68;;;;;;;-146.25;100.00;52179.63;2072371;28;24513;-72
2023/06/07 02:45:37;;;;;;;24.67;10.75;;;;;;;-146.25;100.00;52228.28;2071135;28;30704;-72
2023/06/07 02:46:39;;;;;;;27.38;12.02;;;;;;;-146.25;100.00;52220.19;2071663;28;20042;-72
2023/06/07 02:47:45;;;;;;;25.35;10.13;;;;;;;-146.25;100.00;52197.88;2080089;28;20042;-72
2023/06/07 02:48:48;;;;;;;27.92;10.52;;;;;;;-146.25;100.00;52189.78;2080055;28;20129;-72
2023/06/07 02:49:50;;;;;;;29.50;11.77;;;;;;;-146.25;100.00;52177.59;2071977;28;20073;-72
2023/06/07 02:50:52;;;;;;;26.85;11.80;;;;;;;-146.25;100.00;52199.91;2063586;28;20039;-72
2023/06/07 02:51:54;;;;;;;25.20;10.85;;;;;;;-146.25;100.00;52187.75;2072373;28;20050;-72
2023/06/07 02:52:59;;;;;;;22.67;11.30;;;;;;;-146.25;100.00;52212.06;2071874;28;20066;-71
2023/06/07 02:54:01;;;;;;;29.70;12.60;;;;;;;-146.25;100.00;52175.56;2079259;28;25943;-72
2023/06/07 02:55:03;;;;;;;26.50;11.15;;;;;;;-146.25;100.00;52214.09;2072330;28;20031;-72
2023/06/07 02:56:05;;;;;;;24.90;11.73;;;;;;;-146.25;100.00;52197.88;2070927;28;32029;-70
2023/06/07 02:57:10;;;;;;;30.05;11.85;;;;;;;-146.25;100.00;52208.03;2071558;28;26592;-72
2023/06/07 02:58:13;;;;;;;25.58;11.63;;;;;;;-146.25;100.00;52157.34;2072019;28;20034;-71
2023/06/07 02:59:15;;;;;;;28.80;11.90;;;;;;;-146.25;100.00;52177.59;2071573;28;20038;-71
2023/06/07 03:00:19;;;;;;;30.33;12.43;;;;;;;-146.25;100.00;52216.13;2071772;28;20046;-71
2023/06/07 03:01:33;;;;;;;34.55;13.10;;;;;;;-146.25;100.00;52214.09;2064983;28;20058;-71
2023/06/07 03:02:37;;;;;;;33.88;11.68;;;;;;;-146.25;100.00;52208.03;2071570;28;20035;-71
2023/06/07 03:03:42;;;;;;;31.23;13.45;;;;;;;-146.25;100.00;52177.59;2071597;28;20856;-71
2023/06/07 03:04:46;;;;;;;30.58;12.88;;;;;;;-146.25;100.00;52181.66;2072159;28;20039;-72
2023/06/07 03:05:52;;;;;;;27.50;11.50;;;;;;;-146.25;100.00;52222.22;2071623;28;20136;-71
2023/06/07 03:06:55;;;;;;;25.15;11.55;;;;;;;-146.25;100.00;52210.03;2080354;28;20097;-72
2023/06/07 03:08:10;;;;;;;27.70;11.73;;;;;;;-146.25;100.00;52195.84;2071672;28;20094;-71
2023/06/07 03:09:15;;;;;;;27.45;13.07;;;;;;;-146.25;100.00;52167.47;2072401;28;20070;-71
2023/06/07 03:10:19;;;;;;;22.48;12.07;;;;;;;-146.25;100.00;52191.81;2079757;28;20155;-71
2023/06/07 03:11:21;;;;;;;28.65;12.02;;;;;;;-146.25;100.00;52210.03;2080226;28;20865;-71
2023/06/07 03:12:26;;;;;;;26.40;12.07;;;;;;;-146.25;100.00;52203.97;2079191;28;21042;-71
2023/06/07 03:13:33;;;;;;;25.73;12.00;;;;;;;-146.25;100.00;52193.81;2066603;28;20047;-71
2023/06/07 03:14:42;;;;;;;30.80;11.70;;;;;;;-146.25;100.00;52214.09;2072581;28;20046;-72
2023/06/07 03:15:49;;;;;;;26.88;11.30;;;;;;;-146.25;100.00;52195.84;2072495;28;20854;-72
2023/06/07 03:16:52;;;;;;;23.17;11.60;;;;;;;-146.25;100.00;52222.22;2080488;28;20808;-72
2023/06/07 03:17:55;;;;;;;26.92;12.07;;;;;;;-146.25;100.00;52193.81;2079828;28;20311;-71
2023/06/07 03:18:58;;;;;;;25.98;12.20;;;;;;;-146.25;100.00;52173.56;2080065;28;20117;-72
2023/06/07 03:20:00;;;;;;;27.60;13.20;;;;;;;-146.25;100.00;52208.03;2079695;28;20042;-71
2023/06/07 03:21:04;;;;;;;33.03;12.65;;;;;;;-146.25;100.00;52195.84;2071778;28;20043;-72
2023/06/07 03:22:06;;;;;;;30.83;12.57;;;;;;;-146.25;100.00;52187.75;2080228;28;20784;-71
2023/06/07 03:23:12;;;;;;;29.10;12.63;;;;;;;-146.25;100.00;52203.97;2079735;28;20058;-71
2023/06/07 03:24:17;;;;;;;31.27;13.02;;;;;;;-146.25;100.00;52212.06;2072384;28;20080;-71
2023/06/07 03:25:20;;;;;;;30.40;13.38;;;;;;;-146.25;100.00;52210.03;2080391;28;20049;-71
2023/06/07 03:26:22;;;;;;;28.23;13.00;;;;;;;-146.25;100.00;52177.59;2080190;28;26422;-72
2023/06/07 03:27:27;;;;;;;27.83;12.50;;;;;;;-146.25;100.00;52197.88;2080102;28;20042;-71
2023/06/07 03:28:34;;;;;;;26.60;12.55;;;;;;;-146.25;100.00;52206.00;2080600;28;20038;-71
2023/06/07 03:29:38;;;;;;;29.85;11.50;;;;;;;-146.25;100.00;52203.97;2079694;28;20038;-72
2023/06/07 03:30:41;;;;;;;24.10;10.63;;;;;;;-146.25;100.00;52203.97;2071249;28;20070;-71
2023/06/07 03:31:43;;;;;;;26.90;11.88;;;;;;;-146.25;100.00;52175.56;2071477;28;20193;-72
2023/06/07 03:32:51;;;;;;;20.50;10.90;;;;;;;-146.25;100.00;52210.03;2064654;28;20050;-71
2023/06/07 03:33:54;;;;;;;23.02;9.82;;;;;;;-146.25;100.00;52191.81;2079794;28;20156;-71
2023/06/07 03:34:57;;;;;;;22.92;11.07;;;;;;;-146.25;100.00;52189.78;2079439;28;20164;-71
2023/06/07 03:36:07;;;;;;;29.30;12.48;;;;;;;-146.25;100.00;52187.75;2080688;28;20727;-72
2023/06/07 03:37:12;;;;;;;20.80;10.65;;;;;;;-146.25;100.00;52197.88;2080050;28;20839;-72
2023/06/07 03:38:15;;;;;;;27.25;11.40;;;;;;;-146.25;100.00;52210.03;2071866;28;20934;-72
2023/06/07 03:39:19;;;;;;;32.72;12.43;;;;;;;-146.25;100.00;52187.75;2079486;28;20034;-72
2023/06/07 03:40:21;;;;;;;29.25;12.15;;;;;;;-146.25;100.00;52187.75;2079773;28;20046;-72
2023/06/07 03:41:28;;;;;;;24.92;11.77;;;;;;;-146.25;100.00;52208.03;2071112;28;20172;-72
2023/06/07 03:42:33;;;;;;;29.65;12.63;;;;;;;-146.25;100.00;52189.78;2072762;28;20169;-71
2023/06/07 03:43:38;;;;;;;27.13;11.73;;;;;;;-146.25;100.00;52187.75;2071085;28;20093;-72
2023/06/07 03:44:40;;;;;;;25.70;11.45;;;;;;;-146.25;100.00;52224.25;2080478;28;20077;-72
2023/06/07 03:45:42;;;;;;;27.73;11.52;;;;;;;-146.25;100.00;52274.94;2087447;28;20054;-72
2023/06/07 03:46:48;;;;;;;22.90;11.30;;;;;;;-146.25;100.00;52212.06;2078985;28;20120;-71
2023/06/07 03:47:50;;;;;;;25.55;11.38;;;;;;;-146.25;100.00;52195.84;2071403;28;20189;-71
2023/06/07 03:48:55;;;;;;;22.85;10.38;;;;;;;-146.25;100.00;52214.09;2079768;28;20160;-71
2023/06/07 03:50:01;;;;;;;20.63;10.43;;;;;;;-146.25;100.00;52193.81;2079609;28;20184;-72
2023/06/07 03:51:08;;;;;;;27.73;10.73;;;;;;;-146.25;100.00;52212.06;2079844;28;20132;-71
2023/06/07 03:52:12;;;;;;;27.80;12.10;;;;;;;-146.25;100.00;52203.97;2072959;28;20053;-71
2023/06/07 03:53:15;;;;;;;25.25;10.80;;;;;;;-146.25;100.00;52197.88;2072091;28;20074;-72
2023/06/07 03:54:21;;;;;;;24.25;11.23;;;;;;;-146.25;100.00;52193.81;2079955;28;20057;-71
2023/06/07 03:55:23;;;;;;;26.98;11.40;;;;;;;-146.25;100.00;52185.72;2079692;28;20049;-71
2023/06/07 03:56:28;;;;;;;24.85;11.02;;;;;;;-146.25;100.00;52222.22;2079848;28;20046;-72
2023/06/07 03:57:32;;;;;;;26.92;12.00;;;;;;;-146.25;100.00;52226.25;2079592;28;20561;-72
2023/06/07 03:58:35;;;;;;;31.90;13.00;;;;;;;-146.25;100.00;52197.88;2079827;28;20034;-71
2023/06/07 03:59:43;;;;;;;29.80;11.32;;;;;;;-146.25;100.00;52234.38;2079404;28;20112;-71
2023/06/07 04:00:47;;;;;;;26.65;11.45;;;;;;;-146.25;100.00;52197.88;2071727;28;20041;-71
2023/06/07 04:01:49;;;;;;;23.92;10.40;;;;;;;-146.25;100.00;52206.00;2079345;28;20918;-71
2023/06/07 04:02:53;;;;;;;26.08;10.15;;;;;;;-146.25;100.00;52228.28;2071494;28;20918;-71
2023/06/07 04:03:55;;;;;;;21.85;9.77;;;;;;;-146.25;100.00;52228.28;2071801;28;20961;-70
2023/06/07 04:04:57;;;;;;;21.52;8.77;;;;;;;-146.25;100.00;52234.38;2079613;28;20081;-71
2023/06/07 04:05:59;;;;;;;22.52;9.40;;;;;;;-146.25;100.00;52214.09;2071028;28;23214;-71
2023/06/07 04:07:02;;;;;;;19.65;9.13;;;;;;;-146.25;100.00;52258.72;2080007;28;20054;-72
2023/06/07 04:08:06;;;;;;;21.30;8.48;;;;;;;-146.25;100.00;52224.25;2079317;28;20131;-72
2023/06/07 04:09:10;;;;;;;19.95;7.90;;;;;;;-146.25;100.00;52216.13;2079729;28;20993;-70
2023/06/07 04:10:14;;;;;;;17.08;6.88;;;;;;;-146.25;100.00;52210.03;2080193;28;20826;-73
2023/06/07 04:11:16;;;;;;;16.42;7.03;;;;;;;-146.25;100.00;52242.50;2080591;28;21120;-72
2023/06/07 04:12:21;;;;;;;17.20;7.38;;;;;;;-146.25;100.00;52230.31;2079394;28;20649;-72
2023/06/07 04:13:25;;;;;;;13.73;7.05;;;;;;;-146.25;100.00;52222.22;2080031;28;20042;-71
2023/06/07 04:14:26;;;;;;;11.73;6.20;;;;;;;-146.25;100.00;52222.22;2079409;28;20048;-72
2023/06/07 04:15:29;;;;;;;17.02;6.18;;;;;;;-146.25;97.43;52216.13;2079418;28;20069;-71
2023/06/07 04:16:30;;;;;;;15.15;5.88;;;;;;;-146.25;96.63;52238.44;2079862;28;20057;-71
2023/06/07 04:17:34;;;;;;;11.20;5.68;;;;;;;-146.25;93.42;52272.91;2071417;28;20168;-72
2023/06/07 04:18:35;;;;;;;14.23;5.63;;;;;;;-146.25;91.37;52242.50;2079484;28;20846;-71
2023/06/07 04:19:37;;;;;;;14.48;5.60;;;;;;;-146.25;90.94;52173.56;2079739;28;20049;-72
2023/06/07 04:20:46;;;;;;;11.20;5.10;;;;;;;-146.25;84.70;52250.59;2072096;28;20955;-71
2023/06/07 04:21:53;;;;;;;15.70;5.53;;;;;;;-146.25;85.68;52214.09;2079700;28;20053;-72
2023/06/07 04:22:58;;;;;;;12.65;5.30;;;;;;;-146.25;84.57;52236.41;2079817;28;20930;-71
2023/06/07 04:24:01;;;;;;;14.38;5.72;;;;;;;-146.25;84.19;52230.31;2071748;28;20038;-71
2023/06/07 04:25:04;;;;;;;14.38;5.53;;;;;;;-146.25;84.29;52228.28;2079281;28;20077;-72
2023/06/07 04:26:08;;;;;;;11.30;4.93;;;;;;;-146.25;82.38;52236.41;2087846;28;23053;-70
2023/06/07 04:27:11;;;;;;;13.88;4.95;;;;;;;-146.25;79.60;52195.84;2079047;28;20042;-72
2023/06/07 04:28:15;;;;;;;15.90;4.93;;;;;;;-146.25;75.61;52252.63;2080070;28;20087;-71
2023/06/07 04:29:20;;;;;;;12.82;4.78;;;;;;;-146.25;77.90;52228.28;2087440;28;21477;-72
2023/06/07 04:30:23;;;;;;;16.38;5.07;;;;;;;-146.25;75.04;52203.97;2080267;28;20045;-72
2023/06/07 04:31:33;;;;;;;15.85;5.32;;;;;;;-146.25;74.40;52195.84;2079746;28;20050;-72
2023/06/07 04:32:39;;;;;;;12.02;5.22;;;;;;;-146.25;76.76;52218.16;2079424;28;20058;-72
2023/06/07 04:33:45;;;;;;;12.55;5.20;;;;;;;-146.25;74.21;52224.25;2079996;28;20107;-72
2023/06/07 04:34:48;;;;;;;12.52;4.97;;;;;;;-146.25;77.17;52246.53;2087666;28;20134;-71
2023/06/07 04:35:51;;;;;;;15.68;4.85;;;;;;;-146.25;74.34;52193.81;2079378;28;20052;-70
2023/06/07 04:36:56;;;;;;;11.70;4.68;;;;;;;-146.25;73.78;52240.47;2079689;28;20029;-71
2023/06/07 04:38:01;;;;;;;16.90;5.15;;;;;;;-146.25;72.88;52214.09;2086984;28;20124;-72
2023/06/07 04:39:05;;;;;;;12.50;4.38;;;;;;;-146.25;69.32;52246.53;2079371;28;20954;-71
2023/06/07 04:40:10;;;;;;;12.13;3.88;;;;;;;-146.25;69.64;52203.97;2079267;28;20268;-71
2023/06/07 04:41:13;;;;;;;12.95;4.20;;;;;;;-146.25;66.67;52222.22;2078882;28;21029;-68
2023/06/07 04:42:21;;;;;;;10.90;4.53;;;;;;;-146.25;68.35;52226.25;2079581;28;20983;-72
2023/06/07 04:43:24;;;;;;;10.63;4.18;;;;;;;-146.25;66.34;52254.66;2071019;28;20133;-72
2023/06/07 04:44:29;;;;;;;15.68;4.40;;;;;;;-146.25;68.16;52234.38;2071557;28;20047;-72
2023/06/07 04:45:56;;;;;;;13.02;4.22;;;;;;;-146.25;66.58;52177.59;2078837;28;20926;-72
2023/06/07 04:47:03;;;;;;;11.90;4.18;;;;;;;-146.25;65.88;52189.78;2072373;28;20116;-72
2023/06/07 04:48:11;;;;;;;12.90;3.80;;;;;;;-146.25;64.19;52224.25;2079841;28;20904;-71